Time,TemperatureF,DewpointF,PressureIn,WindDirection,WindDirectionDegrees,WindSpeedMPH,WindSpeedGustMPH,Humidity,HourlyPrecipIn,Conditions,Clouds,dailyrainin,SoftwareType,DateUTC
2013-12-31 00:08:00,33.6,32.0,30.27,NW,306,0.0,1.0,92,0.00,,,0.00,weatherlink.com 1.10,2013-12-31 05:08:00,
2013-12-31 00:23:00,33.2,31.0,30.27,NW,306,1.0,2.0,93,0.00,,,0.00,weatherlink.com 1.10,2013-12-31 05:23:00,
2013-12-31 00:38:00,33.0,32.0,30.27,NW,317,0.0,3.0,94,0.00,,,0.00,weatherlink.com 1.10,2013-12-31 05:38:00,
2013-12-31 00:53:00,33.0,32.0,30.27,NW,318,0.0,3.0,94,0.00,,,0.00,weatherlink.com 1.10,2013-12-31 05:53:00,
2013-12-31 01:08:00,33.2,32.0,30.27,NW,318,0.0,2.0,95,0.00,,,0.00,weatherlink.com 1.10,2013-12-31 06:08:00,
2013-12-31 01:23:00,33.1,32.0,30.28,NW,317,1.0,3.0,94,0.00,,,0.00,weatherlink.com 1.10,2013-12-31 06:23:00,
2013-12-31 01:38:00,32.8,31.0,30.28,NW,317,3.0,5.0,94,0.00,,,0.00,weatherlink.com 1.10,2013-12-31 06:38:00,
2013-12-31 01:53:00,32.4,31.0,30.28,WNW,300,0.0,4.0,94,0.00,,,0.00,weatherlink.com 1.10,2013-12-31 06:53:00,
2013-12-31 02:08:00,32.3,31.0,30.29,WNW,294,0.0,4.0,94,0.00,,,0.00,weatherlink.com 1.10,2013-12-31 07:08:00,
2013-12-31 02:23:00,32.3,31.0,30.29,NNW,331,2.0,4.0,95,0.00,,,0.00,weatherlink.com 1.10,2013-12-31 07:23:00,
2013-12-31 02:38:00,32.2,31.0,30.29,NW,309,0.0,3.0,94,0.00,,,0.00,weatherlink.com 1.10,2013-12-31 07:38:00,
2013-12-31 02:53:00,32.0,31.0,30.30,WNW,292,2.0,6.0,94,0.00,,,0.00,weatherlink.com 1.10,2013-12-31 07:53:00,
2013-12-31 03:08:00,31.7,30.0,30.31,NW,304,3.0,7.0,93,0.00,,,0.00,weatherlink.com 1.10,2013-12-31 08:08:00,
2013-12-31 03:23:00,31.2,29.0,30.32,WNW,301,0.0,8.0,93,0.00,,,0.00,weatherlink.com 1.10,2013-12-31 08:23:00,
2013-12-31 03:38:00,30.9,29.0,30.32,NW,320,0.0,5.0,93,0.00,,,0.00,weatherlink.com 1.10,2013-12-31 08:38:00,
2013-12-31 03:53:00,30.7,29.0,30.32,NNW,340,2.0,5.0,93,0.00,,,0.00,weatherlink.com 1.10,2013-12-31 08:53:00,
2013-12-31 04:08:00,30.3,29.0,30.32,North,355,0.0,5.0,93,0.00,,,0.00,weatherlink.com 1.10,2013-12-31 09:08:00,
2013-12-31 04:23:00,30.0,29.0,30.32,NNW,329,0.0,5.0,94,0.00,,,0.00,weatherlink.com 1.10,2013-12-31 09:23:00,
2013-12-31 04:38:00,29.8,28.0,30.32,NW,306,1.0,4.0,93,0.00,,,0.00,weatherlink.com 1.10,2013-12-31 09:38:00,
2013-12-31 04:53:00,29.5,28.0,30.33,NW,319,0.0,5.0,94,0.00,,,0.00,weatherlink.com 1.10,2013-12-31 09:53:00,
2013-12-31 05:08:00,29.3,28.0,30.34,WNW,292,2.0,7.0,94,0.00,,,0.00,weatherlink.com 1.10,2013-12-31 10:08:00,
2013-12-31 05:24:00,29.3,28.0,30.34,NNW,333,3.0,9.0,94,0.00,,,0.00,weatherlink.com 1.10,2013-12-31 10:24:00,
2013-12-31 05:39:00,29.2,28.0,30.34,NNW,329,0.0,4.0,94,0.00,,,0.00,weatherlink.com 1.10,2013-12-31 10:39:00,
2013-12-31 05:54:00,28.9,27.0,30.35,NW,312,1.0,6.0,94,0.00,,,0.00,weatherlink.com 1.10,2013-12-31 10:54:00,
2013-12-31 06:09:00,28.7,27.0,30.36,NW,309,0.0,3.0,94,0.00,,,0.00,weatherlink.com 1.10,2013-12-31 11:09:00,
2013-12-31 06:24:00,28.6,27.0,30.36,NW,314,1.0,3.0,94,0.00,,,0.00,weatherlink.com 1.10,2013-12-31 11:24:00,
2013-12-31 06:39:00,28.4,27.0,30.37,WNW,295,0.0,3.0,94,0.00,,,0.00,weatherlink.com 1.10,2013-12-31 11:39:00,
2013-12-31 06:54:00,28.2,27.0,30.38,NW,304,0.0,1.0,94,0.00,,,0.00,weatherlink.com 1.10,2013-12-31 11:54:00,
2013-12-31 07:09:00,28.2,27.0,30.38,NW,315,1.0,3.0,95,0.00,,,0.00,weatherlink.com 1.10,2013-12-31 12:09:00,
2013-12-31 07:24:00,28.3,27.0,30.40,North,349,0.0,3.0,95,0.00,,,0.00,weatherlink.com 1.10,2013-12-31 12:24:00,
2013-12-31 07:39:00,28.3,27.0,30.40,NNW,333,1.0,4.0,95,0.00,,,0.00,weatherlink.com 1.10,2013-12-31 12:39:00,
2013-12-31 07:54:00,28.2,27.0,30.41,WNW,299,0.0,4.0,94,0.00,,,0.00,weatherlink.com 1.10,2013-12-31 12:54:00,
2013-12-31 08:09:00,28.2,27.0,30.41,NW,317,1.0,3.0,94,0.00,,,0.00,weatherlink.com 1.10,2013-12-31 13:09:00,
2013-12-31 08:24:00,28.1,27.0,30.41,NW,315,0.0,2.0,94,0.00,,,0.00,weatherlink.com 1.10,2013-12-31 13:24:00,
2013-12-31 08:39:00,28.4,27.0,30.43,NW,309,0.0,3.0,94,0.00,,,0.00,weatherlink.com 1.10,2013-12-31 13:39:00,
2013-12-31 08:54:00,28.6,27.0,30.43,NW,320,0.0,2.0,93,0.00,,,0.00,weatherlink.com 1.10,2013-12-31 13:54:00,
2013-12-31 09:09:00,29.0,27.0,30.44,NNE,19,1.0,2.0,93,0.00,,,0.00,weatherlink.com 1.10,2013-12-31 14:09:00,
2013-12-31 09:24:00,29.3,28.0,30.45,North,5,0.0,3.0,93,0.00,,,0.00,weatherlink.com 1.10,2013-12-31 14:24:00,
2013-12-31 09:39:00,29.8,28.0,30.46,NW,316,1.0,4.0,91,0.00,,,0.00,weatherlink.com 1.10,2013-12-31 14:39:00,
2013-12-31 09:54:00,30.5,28.0,30.47,NNW,346,0.0,4.0,90,0.00,,,0.00,weatherlink.com 1.10,2013-12-31 14:54:00,
2013-12-31 10:09:00,31.1,28.0,30.48,WNW,301,5.0,5.0,89,0.00,,,0.00,weatherlink.com 1.10,2013-12-31 15:09:00,
2013-12-31 10:24:00,31.5,28.0,30.48,North,355,2.0,5.0,86,0.00,,,0.00,weatherlink.com 1.10,2013-12-31 15:24:00,
2013-12-31 10:39:00,32.1,29.0,30.49,NNW,338,1.0,4.0,87,0.00,,,0.00,weatherlink.com 1.10,2013-12-31 15:39:00,
2013-12-31 10:54:00,32.6,28.0,30.50,North,360,5.0,5.0,83,0.00,,,0.00,weatherlink.com 1.10,2013-12-31 15:54:00,
2013-12-31 11:09:00,32.7,28.0,30.50,WNW,293,1.0,7.0,82,0.00,,,0.00,weatherlink.com 1.10,2013-12-31 16:09:00,
2013-12-31 11:24:00,33.2,28.0,30.49,NW,319,0.0,4.0,82,0.00,,,0.00,weatherlink.com 1.10,2013-12-31 16:24:00,
2013-12-31 11:40:00,34.0,28.0,30.49,NNE,17,2.0,7.0,78,0.00,,,0.00,weatherlink.com 1.10,2013-12-31 16:40:00,
2013-12-31 11:54:00,34.6,29.0,30.48,WNW,293,0.0,8.0,79,0.00,,,0.00,weatherlink.com 1.10,2013-12-31 16:54:00,
2013-12-31 12:10:00,35.5,29.0,30.47,NNW,346,2.0,5.0,77,0.00,,,0.00,weatherlink.com 1.10,2013-12-31 17:10:00,
2013-12-31 12:25:00,36.4,29.0,30.46,North,5,2.0,4.0,73,0.00,,,0.00,weatherlink.com 1.10,2013-12-31 17:25:00,
2013-12-31 12:40:00,37.1,28.0,30.45,NNW,344,1.0,4.0,69,0.00,,,0.00,weatherlink.com 1.10,2013-12-31 17:40:00,
2013-12-31 12:55:00,37.8,28.0,30.43,NNE,26,3.0,6.0,67,0.00,,,0.00,weatherlink.com 1.10,2013-12-31 17:55:00,
2013-12-31 13:10:00,38.6,28.0,30.42,NE,37,1.0,4.0,65,0.00,,,0.00,weatherlink.com 1.10,2013-12-31 18:10:00,
2013-12-31 13:25:00,39.3,28.0,30.41,NNE,15,4.0,5.0,65,0.00,,,0.00,weatherlink.com 1.10,2013-12-31 18:25:00,
2013-12-31 13:40:00,39.1,27.0,30.40,North,11,3.0,8.0,62,0.00,,,0.00,weatherlink.com 1.10,2013-12-31 18:40:00,
2013-12-31 13:55:00,39.7,27.0,30.40,East,93,0.0,9.0,62,0.00,,,0.00,weatherlink.com 1.10,2013-12-31 18:55:00,
2013-12-31 14:10:00,40.1,28.0,30.40,NE,56,2.0,6.0,62,0.00,,,0.00,weatherlink.com 1.10,2013-12-31 19:10:00,
2013-12-31 14:25:00,40.4,27.0,30.40,NNE,23,2.0,3.0,59,0.00,,,0.00,weatherlink.com 1.10,2013-12-31 19:25:00,
2013-12-31 14:40:00,40.9,27.0,30.40,NNW,348,0.0,6.0,59,0.00,,,0.00,weatherlink.com 1.10,2013-12-31 19:40:00,
2013-12-31 14:55:00,41.1,26.0,30.39,NNW,340,3.0,6.0,56,0.00,,,0.00,weatherlink.com 1.10,2013-12-31 19:55:00,
2013-12-31 15:10:00,41.2,26.0,30.39,NNW,336,1.0,5.0,56,0.00,,,0.00,weatherlink.com 1.10,2013-12-31 20:10:00,
2013-12-31 15:25:00,41.0,26.0,30.39,NNE,26,2.0,3.0,56,0.00,,,0.00,weatherlink.com 1.10,2013-12-31 20:25:00,
2013-12-31 15:40:00,40.8,26.0,30.39,NNE,29,0.0,3.0,55,0.00,,,0.00,weatherlink.com 1.10,2013-12-31 20:40:00,
2013-12-31 15:55:00,40.6,26.0,30.39,NE,38,0.0,2.0,56,0.00,,,0.00,weatherlink.com 1.10,2013-12-31 20:55:00,
2013-12-31 16:10:00,40.4,26.0,30.39,NE,38,0.0,0.0,58,0.00,,,0.00,weatherlink.com 1.10,2013-12-31 21:10:00,
2013-12-31 16:25:00,40.0,27.0,30.39,ESE,104,1.0,3.0,60,0.00,,,0.00,weatherlink.com 1.10,2013-12-31 21:25:00,
2013-12-31 16:40:00,39.3,27.0,30.40,SE,132,1.0,4.0,61,0.00,,,0.00,weatherlink.com 1.10,2013-12-31 21:40:00,
2013-12-31 16:55:00,38.6,27.0,30.40,SE,132,0.0,1.0,63,0.00,,,0.00,weatherlink.com 1.10,2013-12-31 21:55:00,
2013-12-31 17:10:00,38.1,26.0,30.41,SE,132,0.0,1.0,63,0.00,,,0.00,weatherlink.com 1.10,2013-12-31 22:10:00,
2013-12-31 17:25:00,37.4,26.0,30.41,SE,132,0.0,0.0,64,0.00,,,0.00,weatherlink.com 1.10,2013-12-31 22:25:00,
2013-12-31 17:40:00,36.2,26.0,30.41,SE,132,0.0,0.0,67,0.00,,,0.00,weatherlink.com 1.10,2013-12-31 22:40:00,
2013-12-31 17:55:00,35.1,26.0,30.41,SE,132,0.0,2.0,69,0.00,,,0.00,weatherlink.com 1.10,2013-12-31 22:55:00,
2013-12-31 18:10:00,34.7,26.0,30.41,SE,132,0.0,1.0,70,0.00,,,0.00,weatherlink.com 1.10,2013-12-31 23:10:00,
2013-12-31 18:25:00,34.1,26.0,30.41,SE,132,0.0,0.0,71,0.00,,,0.00,weatherlink.com 1.10,2013-12-31 23:25:00,
2013-12-31 18:40:00,33.7,25.0,30.41,SE,132,1.0,2.0,71,0.00,,,0.00,weatherlink.com 1.10,2013-12-31 23:40:00,
2013-12-31 18:55:00,33.4,26.0,30.42,SE,132,0.0,0.0,73,0.00,,,0.00,weatherlink.com 1.10,2013-12-31 23:55:00,
2013-12-31 19:10:00,32.9,26.0,30.42,SE,132,0.0,0.0,75,0.00,,,0.00,weatherlink.com 1.10,2014-01-01 00:10:00,
2013-12-31 19:25:00,32.3,26.0,30.42,SE,132,0.0,0.0,77,0.00,,,0.00,weatherlink.com 1.10,2014-01-01 00:25:00,
2013-12-31 19:40:00,31.9,26.0,30.43,SE,132,0.0,0.0,78,0.00,,,0.00,weatherlink.com 1.10,2014-01-01 00:40:00,
2013-12-31 19:55:00,31.7,26.0,30.42,SE,132,0.0,0.0,78,0.00,,,0.00,weatherlink.com 1.10,2014-01-01 00:55:00,
2013-12-31 20:10:00,31.4,25.0,30.42,SE,132,0.0,0.0,78,0.00,,,0.00,weatherlink.com 1.10,2014-01-01 01:10:00,
2013-12-31 20:25:00,31.2,25.0,30.41,SE,132,0.0,0.0,78,0.00,,,0.00,weatherlink.com 1.10,2014-01-01 01:25:00,
2013-12-31 20:40:00,31.4,26.0,30.41,SE,132,0.0,0.0,79,0.00,,,0.00,weatherlink.com 1.10,2014-01-01 01:40:00,
2013-12-31 20:55:00,31.1,25.0,30.41,SE,132,0.0,1.0,79,0.00,,,0.00,weatherlink.com 1.10,2014-01-01 01:55:00,
2013-12-31 21:10:00,30.9,26.0,30.40,SE,132,0.0,0.0,81,0.00,,,0.00,weatherlink.com 1.10,2014-01-01 02:10:00,
2013-12-31 21:25:00,30.7,26.0,30.40,SE,132,0.0,0.0,81,0.00,,,0.00,weatherlink.com 1.10,2014-01-01 02:25:00,
2013-12-31 21:40:00,30.6,26.0,30.40,SE,132,0.0,0.0,82,0.00,,,0.00,weatherlink.com 1.10,2014-01-01 02:40:00,
2013-12-31 21:55:00,30.2,25.0,30.40,SE,132,0.0,0.0,81,0.00,,,0.00,weatherlink.com 1.10,2014-01-01 02:55:00,
2013-12-31 22:10:00,30.3,26.0,30.40,SE,132,0.0,0.0,83,0.00,,,0.00,weatherlink.com 1.10,2014-01-01 03:10:00,
2013-12-31 22:25:00,30.3,26.0,30.39,SE,132,0.0,0.0,83,0.00,,,0.00,weatherlink.com 1.10,2014-01-01 03:25:00,
2013-12-31 22:40:00,30.2,25.0,30.40,SE,132,0.0,0.0,82,0.00,,,0.00,weatherlink.com 1.10,2014-01-01 03:40:00,
2013-12-31 22:55:00,30.3,26.0,30.40,SE,132,0.0,0.0,84,0.00,,,0.00,weatherlink.com 1.10,2014-01-01 03:55:00,
2013-12-31 23:10:00,30.4,26.0,30.40,SE,132,0.0,0.0,83,0.00,,,0.00,weatherlink.com 1.10,2014-01-01 04:10:00,
2013-12-31 23:25:00,30.2,25.0,30.40,SE,132,1.0,3.0,82,0.00,,,0.00,weatherlink.com 1.10,2014-01-01 04:25:00,
2013-12-31 23:40:00,30.6,25.0,30.40,SE,132,1.0,2.0,81,0.00,,,0.00,weatherlink.com 1.10,2014-01-01 04:40:00,
2013-12-31 23:55:00,31.3,26.0,30.40,South,190,1.0,4.0,80,0.00,,,0.00,weatherlink.com 1.10,2014-01-01 04:55:00,